createdAt,value
2022-10-02T00:00:09.959Z,1016.90
2022-10-02T00:00:39.461Z,1016.90
2022-10-02T00:01:07.395Z,1016.90
2022-10-02T00:01:39.566Z,1017.00
2022-10-02T00:02:09.740Z,1017.00
2022-10-02T00:02:40.356Z,1016.80
2022-10-02T00:03:11.249Z,1016.80
2022-10-02T00:03:42.156Z,1017.10
2022-10-02T00:04:13.208Z,1017.10
2022-10-02T00:04:44.237Z,1017.10
2022-10-02T00:05:15.479Z,1017.10
2022-10-02T00:05:46.332Z,1016.90
2022-10-02T00:06:17.326Z,1016.90
2022-10-02T00:06:49.546Z,1016.90
2022-10-02T00:07:19.989Z,1016.90
2022-10-02T00:07:51.553Z,1016.90
2022-10-02T00:09:52.349Z,1016.90
2022-10-02T00:10:59.930Z,1016.90
2022-10-02T00:11:28.864Z,1016.59
2022-10-02T00:12:30.400Z,1017.00
2022-10-02T00:13:00.664Z,1017.00
2022-10-02T00:13:31.616Z,1017.00
2022-10-02T00:14:02.433Z,1017.00
2022-10-02T00:14:34.287Z,1016.90
2022-10-02T00:15:14.139Z,1016.90
2022-10-02T00:15:35.547Z,1017.00
2022-10-02T00:16:07.978Z,1017.00
2022-10-02T00:16:39.574Z,1017.00
2022-10-02T00:17:09.535Z,1017.00
2022-10-02T00:17:40.555Z,1016.90
2022-10-02T00:18:11.640Z,1016.90
2022-10-02T00:18:43.529Z,1017.00
2022-10-02T00:19:12.547Z,1017.00
2022-10-02T00:19:43.944Z,1016.90
2022-10-02T00:20:14.655Z,1016.90
2022-10-02T00:20:46.227Z,1017.10
2022-10-02T00:21:17.467Z,1017.10
2022-10-02T00:21:49.181Z,1017.00
2022-10-02T00:22:19.869Z,1017.00
2022-10-02T00:22:49.974Z,1016.90
2022-10-02T00:23:22.823Z,1016.90
2022-10-02T00:23:54.951Z,1017.10
2022-10-02T00:24:24.657Z,1017.10
2022-10-02T00:24:54.488Z,1017.10
2022-10-02T00:25:25.372Z,1017.10
2022-10-02T00:26:03.570Z,1017.00
2022-10-02T00:26:27.877Z,1017.00
2022-10-02T00:27:05.794Z,1017.00
2022-10-02T00:27:29.570Z,1017.00
2022-10-02T00:28:00.023Z,1016.90
2022-10-02T00:28:30.957Z,1016.90
2022-10-02T00:29:02.336Z,1017.10
2022-10-02T00:29:32.400Z,1017.10
2022-10-02T00:30:06.001Z,1017.20
2022-10-02T00:30:35.229Z,1017.00
2022-10-02T00:31:05.788Z,1017.00
2022-10-02T00:31:40.374Z,1017.10
2022-10-02T00:32:09.617Z,1017.10
2022-10-02T00:32:39.848Z,1017.10
2022-10-02T00:33:29.478Z,1017.10
2022-10-02T00:33:40.770Z,1017.10
2022-10-02T00:34:15.181Z,1017.10
2022-10-02T00:34:42.766Z,1017.20
2022-10-02T00:35:14.755Z,1017.20
2022-10-02T00:35:49.396Z,1017.20
2022-10-02T00:36:15.562Z,1017.20
2022-10-02T00:36:46.816Z,1017.30
2022-10-02T00:37:19.158Z,1017.30
2022-10-02T00:37:49.645Z,1017.30
2022-10-02T00:38:20.190Z,1017.30
2022-10-02T00:38:50.684Z,1017.30
2022-10-02T00:39:21.837Z,1017.30
2022-10-02T00:39:52.507Z,1017.30
2022-10-02T00:40:24.972Z,1017.30
2022-10-02T00:40:57.100Z,1017.20
2022-10-02T00:41:25.542Z,1017.20
2022-10-02T00:41:56.786Z,1017.20
2022-10-02T00:42:29.400Z,1017.20
2022-10-02T00:42:59.444Z,1017.20
2022-10-02T00:43:31.101Z,1017.20
2022-10-02T00:44:00.964Z,1017.41
2022-10-02T00:44:39.154Z,1017.20
2022-10-02T00:45:03.022Z,1017.20
2022-10-02T00:45:33.779Z,1017.20
2022-10-02T00:46:05.410Z,1017.30
2022-10-02T00:46:35.428Z,1017.20
2022-10-02T00:47:06.825Z,1017.20
2022-10-02T00:47:38.669Z,1017.30
2022-10-02T00:48:09.550Z,1017.30
2022-10-02T00:48:39.971Z,1017.10
2022-10-02T00:49:10.443Z,1017.10
2022-10-02T00:49:41.539Z,1017.20
2022-10-02T00:50:13.111Z,1017.20
2022-10-02T00:50:43.782Z,1017.41
2022-10-02T00:51:14.448Z,1017.41
2022-10-02T00:51:45.402Z,1017.30
2022-10-02T00:52:16.540Z,1017.30
2022-10-02T00:52:48.750Z,1017.20
2022-10-02T00:53:19.659Z,1017.20
2022-10-02T00:53:49.996Z,1017.30
2022-10-02T00:54:20.386Z,1017.30
2022-10-02T00:54:51.296Z,1017.30
2022-10-02T00:55:22.342Z,1017.30
2022-10-02T00:55:53.397Z,1017.30
2022-10-02T00:56:24.482Z,1017.30
2022-10-02T00:56:58.456Z,1017.10
2022-10-02T00:57:26.231Z,1017.10
2022-10-02T00:57:59.446Z,1017.00
2022-10-02T00:58:29.815Z,1017.00
2022-10-02T00:58:59.958Z,1017.51
2022-10-02T00:59:30.503Z,1017.51
2022-10-02T01:00:02.312Z,1017.30
2022-10-02T01:00:36.634Z,1017.30
2022-10-02T01:01:06.337Z,1017.30
2022-10-02T01:01:34.751Z,1017.30
2022-10-02T01:02:05.541Z,1017.30
2022-10-02T01:02:48.272Z,1017.30
2022-10-02T01:03:26.340Z,1017.30
2022-10-02T01:03:59.608Z,1017.41
2022-10-02T01:04:29.575Z,1017.41
2022-10-02T01:05:00.287Z,1017.30
2022-10-02T01:05:30.733Z,1017.30
2022-10-02T01:06:32.587Z,1017.20
2022-10-02T01:07:20.866Z,1017.10
2022-10-02T01:07:34.702Z,1017.30
2022-10-02T01:08:05.559Z,1017.30
2022-10-02T01:08:36.408Z,1017.30
2022-10-02T01:09:08.132Z,1017.30
2022-10-02T01:09:40.019Z,1017.20
2022-10-02T01:10:10.703Z,1017.20
2022-10-02T01:10:40.659Z,1017.30
2022-10-02T01:11:11.793Z,1017.30
2022-10-02T01:11:42.394Z,1017.41
2022-10-02T01:12:13.521Z,1017.41
2022-10-02T01:12:44.535Z,1017.41
2022-10-02T01:13:15.615Z,1017.41
2022-10-02T01:13:50.088Z,1017.30
2022-10-02T01:14:18.639Z,1017.30
2022-10-02T01:14:49.859Z,1017.20
2022-10-02T01:15:20.683Z,1017.20
2022-10-02T01:15:50.676Z,1017.51
2022-10-02T01:16:40.179Z,1017.41
2022-10-02T01:16:52.800Z,1017.41
2022-10-02T01:17:23.586Z,1017.41
2022-10-02T01:17:55.352Z,1017.20
2022-10-02T01:18:25.402Z,1017.20
2022-10-02T01:18:56.852Z,1017.30
2022-10-02T01:19:28.527Z,1017.30
2022-10-02T01:19:58.685Z,1017.30
2022-10-02T01:20:30.573Z,1017.30
2022-10-02T01:21:17.158Z,1017.51
2022-10-02T01:21:31.457Z,1017.51
2022-10-02T01:22:02.536Z,1017.30
2022-10-02T01:22:33.611Z,1017.30
2022-10-02T01:23:04.640Z,1017.41
2022-10-02T01:23:35.883Z,1017.20
2022-10-02T01:24:06.641Z,1017.20
2022-10-02T01:24:38.057Z,1017.51
2022-10-02T01:25:10.157Z,1017.51
2022-10-02T01:25:40.282Z,1017.51
2022-10-02T01:26:10.699Z,1017.51
2022-10-02T01:26:41.396Z,1017.51
2022-10-02T01:27:12.347Z,1017.51
2022-10-02T01:27:43.571Z,1017.51
2022-10-02T01:28:14.934Z,1017.51
2022-10-02T01:28:45.681Z,1017.71
2022-10-02T01:29:16.657Z,1017.71
2022-10-02T01:29:48.392Z,1017.61
2022-10-02T01:30:21.776Z,1017.61
2022-10-02T01:30:50.797Z,1017.51
2022-10-02T01:31:20.962Z,1017.51
2022-10-02T01:31:51.597Z,1017.30
2022-10-02T01:32:22.484Z,1017.30
2022-10-02T01:32:53.970Z,1017.61
2022-10-02T01:33:24.626Z,1017.61
2022-10-02T01:33:55.603Z,1017.41
2022-10-02T01:34:26.751Z,1017.41
2022-10-02T01:35:01.277Z,1017.20
2022-10-02T01:35:30.156Z,1017.20
2022-10-02T01:36:00.600Z,1017.41
2022-10-02T01:36:31.132Z,1017.41
2022-10-02T01:37:01.883Z,1017.41
2022-10-02T01:37:33.371Z,1017.41
2022-10-02T01:38:03.882Z,1017.41
2022-10-02T01:38:34.696Z,1017.51
2022-10-02T01:39:05.423Z,1017.51
2022-10-02T01:39:36.747Z,1017.61
2022-10-02T01:40:08.285Z,1017.61
2022-10-02T01:40:38.589Z,1017.51
2022-10-02T01:41:10.415Z,1017.51
2022-10-02T01:41:41.024Z,1017.51
2022-10-02T01:42:14.781Z,1017.51
2022-10-02T01:42:43.565Z,1017.30
2022-10-02T01:43:13.724Z,1017.30
2022-10-02T01:43:44.657Z,1017.41
2022-10-02T01:44:15.534Z,1017.41
2022-10-02T01:44:46.772Z,1017.51
2022-10-02T01:45:19.014Z,1017.51
2022-10-02T01:45:50.039Z,1017.41
2022-10-02T01:46:20.715Z,1017.41
2022-10-02T01:46:51.041Z,1017.20
2022-10-02T01:47:21.502Z,1017.20
2022-10-02T01:47:52.870Z,1017.30
2022-10-02T01:48:23.546Z,1017.30
2022-10-02T01:48:54.800Z,1017.30
2022-10-02T01:49:26.888Z,1017.30
2022-10-02T01:49:56.716Z,1017.41
2022-10-02T01:51:00.305Z,1017.41
2022-10-02T01:51:30.776Z,1017.41
2022-10-02T01:52:01.058Z,1017.20
2022-10-02T01:52:31.543Z,1017.20
2022-10-02T01:53:02.766Z,1017.41
2022-10-02T01:53:33.696Z,1017.41
2022-10-02T01:54:04.827Z,1017.51
2022-10-02T01:54:35.966Z,1017.30
2022-10-02T01:55:06.927Z,1017.30
2022-10-02T01:55:40.785Z,1017.30
2022-10-02T01:56:09.872Z,1017.30
2022-10-02T01:56:41.049Z,1017.30
2022-10-02T01:57:11.298Z,1017.30
2022-10-02T01:57:41.927Z,1017.10
2022-10-02T01:58:12.663Z,1017.10
2022-10-02T01:58:43.788Z,1017.30
2022-10-02T01:59:14.769Z,1017.30
2022-10-02T01:59:45.551Z,1017.41
2022-10-02T02:00:17.401Z,1017.41
2022-10-02T02:00:50.554Z,1017.30
2022-10-02T02:01:20.886Z,1017.30
2022-10-02T02:01:50.930Z,1017.61
2022-10-02T02:02:21.254Z,1017.61
2022-10-02T02:03:10.598Z,1017.41
2022-10-02T02:03:22.956Z,1017.41
2022-10-02T02:03:53.624Z,1017.41
2022-10-02T02:04:24.908Z,1017.41
2022-10-02T02:04:55.848Z,1017.51
2022-10-02T02:05:26.957Z,1017.51
2022-10-02T02:05:57.636Z,1017.41
2022-10-02T02:06:30.621Z,1017.41
2022-10-02T02:07:00.858Z,1017.30
2022-10-02T02:07:33.805Z,1017.30
2022-10-02T02:08:01.947Z,1017.30
2022-10-02T02:08:35.649Z,1017.30
2022-10-02T02:09:03.841Z,1017.30
2022-10-02T02:09:34.652Z,1017.51
2022-10-02T02:10:06.445Z,1017.51
2022-10-02T02:10:37.085Z,1017.41
2022-10-02T02:11:08.817Z,1017.41
2022-10-02T02:11:40.542Z,1017.41
2022-10-02T02:12:11.223Z,1017.41
2022-10-02T02:12:41.104Z,1017.41
2022-10-02T02:13:12.303Z,1017.41
2022-10-02T02:13:42.782Z,1017.51
2022-10-02T02:14:13.834Z,1017.51
2022-10-02T02:14:44.706Z,1017.51
2022-10-02T02:15:16.633Z,1017.51
2022-10-02T02:15:46.893Z,1017.51
2022-10-02T02:16:17.830Z,1017.51
2022-10-02T02:16:48.760Z,1017.41
2022-10-02T02:17:21.363Z,1017.41
2022-10-02T02:17:51.268Z,1017.41
2022-10-02T02:18:21.902Z,1017.41
2022-10-02T02:18:52.786Z,1017.51
2022-10-02T02:19:23.819Z,1017.51
2022-10-02T02:19:54.751Z,1017.30
2022-10-02T02:20:31.019Z,1017.30
2022-10-02T02:20:57.669Z,1017.51
2022-10-02T02:21:27.867Z,1017.51
2022-10-02T02:21:59.839Z,1017.41
2022-10-02T02:22:36.497Z,1017.41
2022-10-02T02:23:01.578Z,1017.41
2022-10-02T02:23:32.420Z,1017.41
2022-10-02T02:24:11.569Z,1017.30
2022-10-02T02:24:38.979Z,1017.30
2022-10-02T02:25:05.456Z,1017.51
2022-10-02T02:25:39.943Z,1017.41
2022-10-02T02:26:12.447Z,1017.41
2022-10-02T02:26:38.113Z,1017.30
2022-10-02T02:27:11.391Z,1017.30
2022-10-02T02:27:43.146Z,1017.61
2022-10-02T02:28:12.294Z,1017.61
2022-10-02T02:28:42.819Z,1017.30
2022-10-02T02:29:13.336Z,1017.30
2022-10-02T02:30:15.884Z,1017.41
2022-10-02T02:30:50.986Z,1017.41
2022-10-02T02:31:16.985Z,1017.41
2022-10-02T02:31:48.193Z,1017.30
2022-10-02T02:32:25.552Z,1017.30
2022-10-02T02:32:51.261Z,1017.41
2022-10-02T02:33:21.835Z,1017.41
2022-10-02T02:33:51.969Z,1017.51
2022-10-02T02:34:22.980Z,1017.51
2022-10-02T02:34:54.045Z,1017.41
2022-10-02T02:35:25.214Z,1017.41
2022-10-02T02:35:55.762Z,1017.41
2022-10-02T02:36:26.786Z,1017.41
2022-10-02T02:36:57.914Z,1017.71
2022-10-02T02:37:29.216Z,1017.71
2022-10-02T02:38:01.531Z,1017.41
2022-10-02T02:38:32.710Z,1017.41
2022-10-02T02:39:07.077Z,1017.51
2022-10-02T02:39:33.072Z,1017.51
2022-10-02T02:40:04.721Z,1017.41
2022-10-02T02:40:35.254Z,1017.51
2022-10-02T02:41:06.060Z,1017.51
2022-10-02T02:42:08.456Z,1017.51
2022-10-02T02:42:38.826Z,1017.51
2022-10-02T02:43:11.769Z,1017.51
2022-10-02T02:43:41.845Z,1017.41
2022-10-02T02:44:12.479Z,1017.41
2022-10-02T02:44:42.984Z,1017.61
2022-10-02T02:45:14.747Z,1017.61
2022-10-02T02:45:45.475Z,1017.61
2022-10-02T02:46:15.824Z,1017.61
2022-10-02T02:46:46.785Z,1017.81
2022-10-02T02:47:17.862Z,1017.81
2022-10-02T02:47:51.549Z,1017.71
2022-10-02T02:48:21.645Z,1017.71
2022-10-02T02:48:51.852Z,1017.51
2022-10-02T02:49:22.070Z,1017.51
2022-10-02T02:49:53.018Z,1017.51
2022-10-02T02:50:28.932Z,1017.51
2022-10-02T02:50:55.143Z,1017.51
2022-10-02T02:51:25.945Z,1017.51
2022-10-02T02:51:56.837Z,1017.71
2022-10-02T02:52:28.316Z,1017.71
2022-10-02T02:52:59.152Z,1017.71
2022-10-02T02:53:32.044Z,1017.71
2022-10-02T02:54:01.950Z,1017.51
2022-10-02T02:54:32.610Z,1017.51
2022-10-02T02:55:18.485Z,1017.71
2022-10-02T02:55:34.136Z,1017.51
2022-10-02T02:56:36.116Z,1017.41
2022-10-02T02:57:07.381Z,1017.41
2022-10-02T02:57:38.074Z,1017.51
2022-10-02T02:58:09.867Z,1017.51
2022-10-02T02:58:41.875Z,1017.51
2022-10-02T02:59:44.892Z,1017.71
2022-10-02T03:00:24.552Z,1017.71
2022-10-02T03:00:44.174Z,1017.61
2022-10-02T03:01:15.757Z,1017.61
2022-10-02T03:01:45.992Z,1017.61
2022-10-02T03:02:16.939Z,1017.61
2022-10-02T03:02:48.115Z,1017.61
2022-10-02T03:03:19.570Z,1017.61
2022-10-02T03:03:51.564Z,1017.41
2022-10-02T03:04:21.716Z,1017.41
2022-10-02T03:04:52.464Z,1017.71
2022-10-02T03:05:28.447Z,1017.71
2022-10-02T03:05:53.859Z,1017.71
2022-10-02T03:06:25.181Z,1017.71
2022-10-02T03:06:56.146Z,1017.51
2022-10-02T03:07:26.887Z,1017.51
2022-10-02T03:07:58.182Z,1017.61
2022-10-02T03:08:29.584Z,1017.61
2022-10-02T03:09:02.009Z,1017.71
2022-10-02T03:09:32.309Z,1017.71
2022-10-02T03:10:05.085Z,1017.61
2022-10-02T03:10:33.120Z,1017.61
2022-10-02T03:11:04.079Z,1017.51
2022-10-02T03:11:35.164Z,1017.61
2022-10-02T03:12:06.077Z,1017.61
2022-10-02T03:13:08.041Z,1017.51
2022-10-02T03:13:38.919Z,1017.61
2022-10-02T03:14:12.057Z,1017.61
2022-10-02T03:14:41.994Z,1017.81
2022-10-02T03:15:12.693Z,1017.81
2022-10-02T03:15:43.107Z,1017.71
2022-10-02T03:16:14.145Z,1017.71
2022-10-02T03:16:45.317Z,1017.61
2022-10-02T03:17:16.222Z,1017.61
2022-10-02T03:17:46.908Z,1017.71
2022-10-02T03:18:18.164Z,1017.71
2022-10-02T03:18:48.922Z,1017.51
2022-10-02T03:19:21.874Z,1017.51
2022-10-02T03:19:52.183Z,1017.61
2022-10-02T03:20:22.543Z,1017.61
2022-10-02T03:20:53.143Z,1017.30
2022-10-02T03:21:24.133Z,1017.30
2022-10-02T03:21:55.086Z,1017.51
2022-10-02T03:22:26.152Z,1017.51
2022-10-02T03:22:57.267Z,1017.61
2022-10-02T03:23:28.293Z,1017.61
2022-10-02T03:24:01.595Z,1017.61
2022-10-02T03:24:31.652Z,1017.61
2022-10-02T03:25:02.671Z,1017.61
2022-10-02T03:25:32.364Z,1017.61
2022-10-02T03:26:12.714Z,1017.41
2022-10-02T03:26:34.450Z,1017.51
2022-10-02T03:27:06.248Z,1017.51
2022-10-02T03:27:35.945Z,1017.71
2022-10-02T03:28:07.187Z,1017.71
2022-10-02T03:28:55.086Z,1017.81
2022-10-02T03:29:09.009Z,1017.81
2022-10-02T03:29:41.606Z,1017.41
2022-10-02T03:30:13.249Z,1017.41
2022-10-02T03:30:42.738Z,1017.51
2022-10-02T03:31:13.112Z,1017.51
2022-10-02T03:31:44.334Z,1017.61
2022-10-02T03:32:15.021Z,1017.61
2022-10-02T03:32:46.198Z,1017.51
2022-10-02T03:33:23.278Z,1017.51
2022-10-02T03:33:48.265Z,1017.41
2022-10-02T03:34:19.105Z,1017.41
2022-10-02T03:34:52.132Z,1017.41
2022-10-02T03:35:22.672Z,1017.41
2022-10-02T03:35:53.186Z,1017.71
2022-10-02T03:36:30.894Z,1017.71
2022-10-02T03:36:54.155Z,1017.81
2022-10-02T03:37:25.226Z,1017.81
2022-10-02T03:37:56.140Z,1017.71
2022-10-02T03:38:27.034Z,1017.71
2022-10-02T03:39:20.289Z,1017.71
2022-10-02T03:39:29.172Z,1017.71
2022-10-02T03:40:02.070Z,1017.51
2022-10-02T03:40:32.523Z,1017.51
2022-10-02T03:41:02.770Z,1017.51
2022-10-02T03:41:33.275Z,1017.51
2022-10-02T03:42:04.298Z,1017.51
2022-10-02T03:42:36.427Z,1017.61
2022-10-02T03:43:06.024Z,1017.61
2022-10-02T03:43:37.279Z,1017.51
2022-10-02T03:44:12.776Z,1017.51
2022-10-02T03:44:39.227Z,1017.61
2022-10-02T03:45:27.305Z,1017.61
2022-10-02T03:46:12.921Z,1017.71
2022-10-02T03:46:43.449Z,1017.71
2022-10-02T03:47:14.202Z,1017.71
2022-10-02T03:47:45.241Z,1017.71
2022-10-02T03:48:16.283Z,1017.71
2022-10-02T03:48:47.116Z,1017.61
2022-10-02T03:49:18.242Z,1017.61
2022-10-02T03:49:49.228Z,1017.41
2022-10-02T03:50:20.166Z,1017.41
2022-10-02T03:50:52.681Z,1017.61
2022-10-02T03:51:53.321Z,1017.61
2022-10-02T03:52:24.285Z,1017.61
2022-10-02T03:52:55.268Z,1017.61
2022-10-02T03:53:26.015Z,1017.61
2022-10-02T03:53:57.407Z,1017.51
2022-10-02T03:54:28.267Z,1017.51
2022-10-02T03:54:59.233Z,1017.81
2022-10-02T03:55:32.305Z,1017.81
2022-10-02T03:56:02.673Z,1017.51
2022-10-02T03:56:33.127Z,1017.51
2022-10-02T03:57:03.415Z,1017.61
2022-10-02T03:57:34.337Z,1017.61
2022-10-02T03:58:05.272Z,1017.61
2022-10-02T03:58:36.065Z,1017.41
2022-10-02T03:59:07.016Z,1017.41
2022-10-02T03:59:38.336Z,1017.51
2022-10-02T04:00:11.184Z,1017.51
2022-10-02T04:00:40.430Z,1017.41
2022-10-02T04:01:11.518Z,1017.41
2022-10-02T04:01:45.591Z,1017.51
2022-10-02T04:02:13.234Z,1017.51
2022-10-02T04:02:44.291Z,1017.51
2022-10-02T04:03:15.345Z,1017.51
2022-10-02T04:03:47.772Z,1017.71
2022-10-02T04:04:17.853Z,1017.71
2022-10-02T04:04:48.737Z,1017.51
2022-10-02T04:05:19.416Z,1017.51
2022-10-02T04:05:50.328Z,1017.61
2022-10-02T04:06:21.746Z,1017.61
2022-10-02T04:06:52.452Z,1017.51
2022-10-02T04:07:23.274Z,1017.51
2022-10-02T04:08:07.955Z,1017.51
2022-10-02T04:08:25.283Z,1017.51
2022-10-02T04:08:57.520Z,1017.61
2022-10-02T04:09:28.155Z,1017.61
2022-10-02T04:09:59.275Z,1017.61
2022-10-02T04:10:29.370Z,1017.61
2022-10-02T04:11:01.150Z,1017.71
2022-10-02T04:11:31.459Z,1017.71
2022-10-02T04:12:02.684Z,1017.51
2022-10-02T04:12:33.397Z,1017.51
2022-10-02T04:13:04.493Z,1017.61
2022-10-02T04:13:35.218Z,1017.71
2022-10-02T04:14:07.539Z,1017.71
2022-10-02T04:14:37.959Z,1017.51
2022-10-02T04:15:09.538Z,1017.51
2022-10-02T04:15:56.473Z,1017.41
2022-10-02T04:16:10.645Z,1017.41
2022-10-02T04:16:41.105Z,1017.41
2022-10-02T04:17:12.467Z,1017.41
2022-10-02T04:17:43.393Z,1017.51
2022-10-02T04:18:14.293Z,1017.51
2022-10-02T04:18:45.384Z,1017.41
2022-10-02T04:19:17.797Z,1017.41
2022-10-02T04:19:48.270Z,1017.61
2022-10-02T04:20:19.183Z,1017.61
2022-10-02T04:20:49.637Z,1017.61
2022-10-02T04:21:20.305Z,1017.61
2022-10-02T04:21:51.414Z,1017.41
2022-10-02T04:22:22.462Z,1017.41
2022-10-02T04:22:53.345Z,1017.30
2022-10-02T04:23:24.490Z,1017.30
2022-10-02T04:23:55.858Z,1017.41
2022-10-02T04:24:43.557Z,1017.51
2022-10-02T04:24:58.683Z,1017.51
2022-10-02T04:25:28.992Z,1017.51
2022-10-02T04:26:01.674Z,1017.51
2022-10-02T04:26:30.232Z,1017.51
2022-10-02T04:27:03.017Z,1017.20
2022-10-02T04:27:32.915Z,1017.20
2022-10-02T04:28:03.895Z,1017.51
2022-10-02T04:28:34.716Z,1017.41
2022-10-02T04:29:05.190Z,1017.41
2022-10-02T04:29:37.184Z,1017.41
2022-10-02T04:30:08.183Z,1017.41
2022-10-02T04:30:38.537Z,1017.51
2022-10-02T04:31:11.714Z,1017.51
2022-10-02T04:31:41.251Z,1017.51
2022-10-02T04:32:11.592Z,1017.51
2022-10-02T04:32:42.768Z,1017.61
2022-10-02T04:33:33.254Z,1017.61
2022-10-02T04:33:44.511Z,1017.51
2022-10-02T04:34:15.379Z,1017.51
2022-10-02T04:34:48.127Z,1017.71
2022-10-02T04:35:18.488Z,1017.71
2022-10-02T04:35:49.338Z,1017.51
2022-10-02T04:36:19.804Z,1017.51
2022-10-02T04:36:50.548Z,1017.81
2022-10-02T04:37:21.533Z,1017.81
2022-10-02T04:38:09.809Z,1017.20
2022-10-02T04:38:23.197Z,1017.20
2022-10-02T04:38:54.437Z,1017.41
2022-10-02T04:39:26.114Z,1017.41
2022-10-02T04:39:57.841Z,1017.61
2022-10-02T04:40:28.190Z,1017.61
2022-10-02T04:40:58.420Z,1017.61
2022-10-02T04:41:29.208Z,1017.61
2022-10-02T04:42:00.296Z,1017.51
2022-10-02T04:42:49.901Z,1017.61
2022-10-02T04:43:02.776Z,1017.61
2022-10-02T04:43:33.446Z,1017.61
2022-10-02T04:44:04.629Z,1017.61
2022-10-02T04:44:35.498Z,1017.41
2022-10-02T04:45:08.312Z,1017.41
2022-10-02T04:45:38.410Z,1017.51
2022-10-02T04:46:08.584Z,1017.51
2022-10-02T04:46:39.410Z,1017.61
2022-10-02T04:47:10.466Z,1017.61
2022-10-02T04:47:41.460Z,1017.51
2022-10-02T04:48:12.465Z,1017.51
2022-10-02T04:48:43.647Z,1017.41
2022-10-02T04:49:14.273Z,1017.41
2022-10-02T04:49:45.446Z,1017.61
2022-10-02T04:50:17.484Z,1017.61
2022-10-02T04:50:48.930Z,1017.51
2022-10-02T04:51:18.900Z,1017.51
2022-10-02T04:51:51.653Z,1017.51
2022-10-02T04:52:20.647Z,1017.51
2022-10-02T04:52:51.340Z,1017.51
2022-10-02T04:53:22.848Z,1017.51
2022-10-02T04:53:53.510Z,1017.51
2022-10-02T04:54:24.242Z,1017.51
2022-10-02T04:54:55.421Z,1017.71
2022-10-02T04:55:27.834Z,1017.71
2022-10-02T04:55:58.502Z,1017.51
2022-10-02T04:56:28.816Z,1017.51
2022-10-02T04:56:59.611Z,1017.51
2022-10-02T04:57:30.430Z,1017.51
2022-10-02T04:58:01.664Z,1017.41
2022-10-02T04:58:33.338Z,1017.41
2022-10-02T04:59:03.340Z,1017.61
2022-10-02T04:59:34.440Z,1017.71
2022-10-02T05:00:11.940Z,1017.71
2022-10-02T05:00:37.869Z,1017.61
2022-10-02T05:01:08.210Z,1017.61
2022-10-02T05:01:38.416Z,1017.41
2022-10-02T05:02:09.313Z,1017.41
2022-10-02T05:02:43.491Z,1017.71
2022-10-02T05:03:11.518Z,1017.71
2022-10-02T05:03:43.800Z,1017.61
2022-10-02T05:04:13.505Z,1017.61
2022-10-02T05:06:35.449Z,1017.71
2022-10-02T05:13:44.422Z,1017.71
2022-10-02T05:14:47.548Z,1017.41
2022-10-02T05:15:08.115Z,1017.71
2022-10-02T05:15:37.568Z,1017.71
2022-10-02T05:16:38.056Z,1017.81
2022-10-02T05:17:08.684Z,1017.81
2022-10-02T05:17:39.738Z,1017.61
2022-10-02T05:18:14.579Z,1017.61
2022-10-02T05:18:41.777Z,1017.71
2022-10-02T05:19:12.707Z,1017.71
2022-10-02T05:19:43.841Z,1017.71
2022-10-02T05:20:15.859Z,1017.71
2022-10-02T05:20:47.345Z,1017.61
2022-10-02T05:21:17.314Z,1017.61
2022-10-02T05:21:47.761Z,1017.81
2022-10-02T05:22:18.820Z,1017.81
2022-10-02T05:22:49.817Z,1017.81
2022-10-02T05:23:20.632Z,1017.81
2022-10-02T05:23:54.466Z,1017.71
2022-10-02T05:24:22.646Z,1017.71
2022-10-02T05:24:53.639Z,1017.91
2022-10-02T05:25:25.034Z,1017.91
2022-10-02T05:25:57.530Z,1017.61
2022-10-02T05:26:27.467Z,1017.61
2022-10-02T05:26:58.288Z,1017.71
2022-10-02T05:27:47.179Z,1017.61
2022-10-02T05:27:59.738Z,1017.61
2022-10-02T05:28:30.836Z,1017.61
2022-10-02T05:29:01.575Z,1017.71
2022-10-02T05:29:32.713Z,1017.71
2022-10-02T05:30:04.525Z,1017.51
2022-10-02T05:30:36.116Z,1017.41
2022-10-02T05:31:07.127Z,1017.41
2022-10-02T05:31:37.601Z,1017.61
2022-10-02T05:32:07.679Z,1017.61
2022-10-02T05:32:38.813Z,1017.61
2022-10-02T05:33:09.723Z,1017.61
2022-10-02T05:33:43.651Z,1017.51
2022-10-02T05:34:28.988Z,1017.51
2022-10-02T05:34:42.799Z,1017.61
2022-10-02T05:35:13.627Z,1017.61
2022-10-02T05:35:44.743Z,1017.71
2022-10-02T05:36:33.249Z,1017.71
2022-10-02T05:36:47.678Z,1017.61
2022-10-02T05:37:17.984Z,1017.61
2022-10-02T05:37:48.730Z,1017.91
2022-10-02T05:38:19.758Z,1017.91
2022-10-02T05:38:50.446Z,1017.51
2022-10-02T05:39:21.740Z,1017.51
2022-10-02T05:39:52.569Z,1017.61
2022-10-02T05:40:23.993Z,1017.61
2022-10-02T05:40:54.826Z,1017.71
2022-10-02T05:41:26.607Z,1017.71
2022-10-02T05:41:58.314Z,1017.61
2022-10-02T05:42:27.887Z,1017.61
2022-10-02T05:42:59.948Z,1017.71
2022-10-02T05:43:29.717Z,1017.71
2022-10-02T05:44:01.238Z,1017.71
2022-10-02T05:44:31.710Z,1017.71
2022-10-02T05:45:20.602Z,1017.81
2022-10-02T05:45:33.482Z,1017.81
2022-10-02T05:46:04.546Z,1017.81
2022-10-02T05:46:37.413Z,1017.61
2022-10-02T05:47:07.896Z,1017.61
2022-10-02T05:47:37.995Z,1017.71
2022-10-02T05:48:08.851Z,1017.71
2022-10-02T05:49:11.048Z,1017.71
2022-10-02T05:49:59.158Z,1017.81
2022-10-02T05:50:13.205Z,1017.81
2022-10-02T05:50:43.796Z,1017.61
2022-10-02T05:51:14.810Z,1017.61
2022-10-02T05:51:47.207Z,1017.71
2022-10-02T05:52:18.322Z,1017.71
2022-10-02T05:52:48.123Z,1017.71
2022-10-02T05:53:19.048Z,1017.71
2022-10-02T05:53:50.558Z,1017.81
2022-10-02T05:54:20.916Z,1017.81
2022-10-02T05:54:51.839Z,1017.81
2022-10-02T05:55:22.786Z,1017.81
2022-10-02T05:55:53.749Z,1017.71
2022-10-02T05:56:24.860Z,1017.71
2022-10-02T05:56:57.229Z,1017.61
2022-10-02T05:57:27.645Z,1017.61
2022-10-02T05:57:58.287Z,1017.81
2022-10-02T05:58:29.168Z,1017.81
2022-10-02T05:58:59.767Z,1017.51
2022-10-02T05:59:30.693Z,1017.51
2022-10-02T06:00:18.971Z,1017.91
2022-10-02T06:00:33.065Z,1017.91
2022-10-02T06:01:04.438Z,1017.71
2022-10-02T06:01:36.419Z,1017.91
2022-10-02T06:02:07.527Z,1017.91
2022-10-02T06:02:39.619Z,1017.71
2022-10-02T06:03:08.942Z,1017.71
2022-10-02T06:03:57.238Z,1017.81
2022-10-02T06:04:10.427Z,1017.81
2022-10-02T06:04:40.961Z,1017.81
2022-10-02T06:05:12.423Z,1017.81
2022-10-02T06:05:42.867Z,1017.81
2022-10-02T06:06:14.072Z,1017.81
2022-10-02T06:06:44.776Z,1017.71
2022-10-02T06:07:16.146Z,1017.71
2022-10-02T06:08:18.660Z,1017.61
2022-10-02T06:08:49.119Z,1017.61
2022-10-02T06:09:20.576Z,1017.61
2022-10-02T06:09:50.920Z,1017.71
2022-10-02T06:10:21.598Z,1017.71
2022-10-02T06:10:52.737Z,1017.81
2022-10-02T06:11:23.550Z,1017.81
2022-10-02T06:11:54.726Z,1017.71
2022-10-02T06:12:26.163Z,1017.71
2022-10-02T06:12:58.392Z,1017.61
2022-10-02T06:13:28.779Z,1017.61
2022-10-02T06:13:59.107Z,1017.71
2022-10-02T06:14:30.073Z,1017.71
2022-10-02T06:15:01.807Z,1017.81
2022-10-02T06:15:31.721Z,1017.81
2022-10-02T06:16:02.909Z,1017.71
2022-10-02T06:16:34.359Z,1017.71
2022-10-02T06:17:05.182Z,1017.71
2022-10-02T06:17:53.379Z,1017.71
2022-10-02T06:18:08.697Z,1017.71
2022-10-02T06:18:38.474Z,1017.71
2022-10-02T06:19:09.612Z,1017.71
2022-10-02T06:19:40.025Z,1017.81
2022-10-02T06:20:11.670Z,1017.81
2022-10-02T06:20:44.635Z,1017.91
2022-10-02T06:21:17.080Z,1017.91
2022-10-02T06:21:44.022Z,1017.81
2022-10-02T06:22:14.691Z,1017.81
2022-10-02T06:22:46.404Z,1018.08
2022-10-02T06:23:21.537Z,1018.08
2022-10-02T06:23:48.557Z,1017.91
2022-10-02T06:24:19.046Z,1017.91
2022-10-02T06:24:50.026Z,1017.71
2022-10-02T06:25:51.947Z,1017.91
2022-10-02T06:26:22.953Z,1017.91
2022-10-02T06:27:11.562Z,1017.71
2022-10-02T06:27:24.710Z,1017.71
2022-10-02T06:27:56.367Z,1017.81
2022-10-02T06:28:28.405Z,1017.81
2022-10-02T06:28:58.814Z,1017.81
2022-10-02T06:29:29.028Z,1017.81
2022-10-02T06:29:59.753Z,1018.01
2022-10-02T06:30:32.567Z,1018.01
2022-10-02T06:31:01.796Z,1017.81
2022-10-02T06:31:32.929Z,1017.81
2022-10-02T06:32:04.404Z,1017.81
2022-10-02T06:32:35.381Z,1017.91
2022-10-02T06:33:24.367Z,1017.91